Time;durP1;ratioP1;P1;durP2;ratioP2;P2;SDS_P1;SDS_P2;PMS_P1;PMS_P2;Temp;Humidity;BMP_temperature;BMP_pressure;BME280_temperature;BME280_humidity;BME280_pressure;Samples;Min_cycle;Max_cycle;Signal;HPM_P1;HPM_P2
2022/07/07 00:00:56;;;;;;;7.80;1.75;;;;;;;14.63;92.67;101230.84;6195384;23;20020;-84
2022/07/07 00:03:23;;;;;;;3.17;1.50;;;;;;;14.56;93.57;101229.19;6164480;23;20027;-82
2022/07/07 00:05:51;;;;;;;1.27;1.20;;;;;;;14.52;94.16;101224.88;6193903;23;20088;-83
2022/07/07 00:08:20;;;;;;;2.08;1.52;;;;;;;14.51;95.23;101223.13;6196100;23;20023;-82
2022/07/07 00:10:55;;;;;;;3.35;1.92;;;;;;;14.51;94.40;101223.13;6196987;23;20047;-82
2022/07/07 00:13:22;;;;;;;2.88;2.08;;;;;;;14.54;94.10;101218.69;6193072;23;20515;-84
2022/07/07 00:15:49;;;;;;;3.80;2.20;;;;;;;14.54;94.47;101218.69;6199591;23;20103;-85
2022/07/07 00:18:16;;;;;;;5.72;2.28;;;;;;;14.51;95.46;101224.03;6200401;23;20020;-83
2022/07/07 00:20:43;;;;;;;3.85;2.55;;;;;;;14.41;96.01;101209.25;6196989;23;20024;-83
2022/07/07 00:23:10;;;;;;;5.45;2.70;;;;;;;14.32;97.37;101210.25;6168689;23;20436;-83
2022/07/07 00:25:39;;;;;;;4.45;3.28;;;;;;;14.25;97.95;101197.22;6196454;23;20016;-84
2022/07/07 00:28:06;;;;;;;4.00;3.58;;;;;;;14.18;98.75;101199.97;6196000;23;20020;-84
2022/07/07 00:30:35;;;;;;;3.65;3.30;;;;;;;14.19;98.70;101192.91;6199512;23;20075;-84
2022/07/07 00:33:04;;;;;;;4.30;3.63;;;;;;;14.22;97.63;101183.22;6166205;23;20290;-85
2022/07/07 00:35:31;;;;;;;6.15;3.20;;;;;;;14.26;97.72;101189.28;6193113;23;20465;-83
2022/07/07 00:38:05;;;;;;;5.32;3.65;;;;;;;14.33;96.86;101192.72;6166548;23;20028;-86
2022/07/07 00:40:32;;;;;;;3.50;3.20;;;;;;;14.33;97.71;101192.72;6202573;23;20028;-86
2022/07/07 00:42:58;;;;;;;7.45;3.90;;;;;;;14.27;98.18;101182.28;6195816;23;20024;-83
2022/07/07 00:45:26;;;;;;;4.35;3.30;;;;;;;14.21;98.78;101184.09;6199929;23;20070;-85
2022/07/07 00:47:53;;;;;;;9.77;3.88;;;;;;;14.27;99.03;101179.63;6176057;23;20013;-84
2022/07/07 00:50:21;;;;;;;6.70;3.67;;;;;;;14.26;99.21;101178.75;6196947;23;20016;-84
2022/07/07 00:52:49;;;;;;;6.20;3.80;;;;;;;14.14;100.00;101166.66;6193830;23;20147;-83
2022/07/07 00:55:15;;;;;;;4.05;3.65;;;;;;;14.09;100.00;101168.47;6200665;23;20019;-83
2022/07/07 00:57:42;;;;;;;5.68;4.00;;;;;;;14.02;100.00;101170.34;6202145;23;20095;-82
2022/07/07 01:00:15;;;;;;;5.03;3.95;;;;;;;13.99;100.00;101157.22;6177457;23;20108;-83
2022/07/07 01:02:44;;;;;;;5.50;4.18;;;;;;;13.97;100.00;101156.38;6198871;23;20074;-84
2022/07/07 01:05:13;;;;;;;6.85;4.97;;;;;;;13.95;100.00;101152.03;6179588;23;20016;-82
2022/07/07 01:07:40;;;;;;;6.75;4.53;;;;;;;13.93;100.00;101153.84;6202886;23;20434;-84
2022/07/07 01:10:08;;;;;;;9.18;5.70;;;;;;;13.94;100.00;101150.31;6175862;23;20054;-83
2022/07/07 01:12:39;;;;;;;6.53;4.15;;;;;;;13.90;100.00;101146.84;6200830;23;20061;-82
2022/07/07 01:15:16;;;;;;;6.28;5.05;;;;;;;13.87;100.00;101147.75;6203222;23;20020;-83
2022/07/07 01:17:54;;;;;;;8.52;5.47;;;;;;;13.83;100.00;101138.19;6204894;23;20092;-82
2022/07/07 01:20:22;;;;;;;6.30;4.43;;;;;;;13.82;100.00;101131.16;6176477;23;20044;-83
2022/07/07 01:22:55;;;;;;;6.43;4.97;;;;;;;13.85;100.00;101125.84;6172854;23;20094;-85
2022/07/07 01:25:24;;;;;;;6.57;4.65;;;;;;;13.79;100.00;101133.81;6174510;23;20112;-83
2022/07/07 01:27:52;;;;;;;7.90;5.28;;;;;;;13.77;100.00;101127.75;6178156;23;20020;-83
2022/07/07 01:30:20;;;;;;;5.85;4.18;;;;;;;13.78;100.00;101118.06;6204726;23;20050;-83
2022/07/07 01:32:49;;;;;;;6.75;5.35;;;;;;;13.79;100.00;101115.41;6196868;23;20023;-84
2022/07/07 01:35:15;;;;;;;4.55;3.95;;;;;;;13.80;100.00;101117.16;6175912;23;20023;-83
2022/07/07 01:37:49;;;;;;;5.85;4.32;;;;;;;13.79;100.00;101101.41;6176572;23;20035;-84
2022/07/07 01:40:17;;;;;;;4.53;4.13;;;;;;;13.81;100.00;101097.84;6199272;23;20040;-85
2022/07/07 01:42:43;;;;;;;5.57;4.32;;;;;;;13.81;100.00;101097.00;6173694;23;20087;-83
2022/07/07 01:45:11;;;;;;;4.65;4.28;;;;;;;13.79;100.00;101083.84;6179065;23;20107;-82
2022/07/07 01:47:39;;;;;;;7.03;4.82;;;;;;;13.79;100.00;101080.34;6176395;23;20762;-84
2022/07/07 01:50:06;;;;;;;4.50;4.03;;;;;;;13.82;100.00;101070.66;6174912;23;20020;-83
2022/07/07 01:52:38;;;;;;;3.83;3.53;;;;;;;13.88;100.00;101075.81;6170484;23;20024;-83
2022/07/07 01:55:06;;;;;;;5.72;4.18;;;;;;;13.93;100.00;101073.09;6197805;23;20036;-84
2022/07/07 01:57:39;;;;;;;5.55;3.92;;;;;;;13.97;100.00;101064.25;6199426;23;20389;-83
2022/07/07 02:00:07;;;;;;;5.63;4.40;;;;;;;14.01;100.00;101063.31;6202424;23;20020;-83
2022/07/07 02:02:37;;;;;;;4.97;3.65;;;;;;;14.02;100.00;101064.19;6197830;23;20313;-84
2022/07/07 02:05:06;;;;;;;6.00;3.92;;;;;;;14.02;100.00;101051.03;6198121;23;20455;-84
2022/07/07 02:07:36;;;;;;;4.20;3.90;;;;;;;14.07;100.00;101044.78;6175371;23;20020;-84
2022/07/07 02:10:07;;;;;;;3.22;3.03;;;;;;;14.10;100.00;101040.38;6203451;23;20315;-83
2022/07/07 02:12:34;;;;;;;4.65;3.72;;;;;;;14.12;100.00;101047.34;6153181;23;20020;-84
2022/07/07 02:15:03;;;;;;;3.90;3.33;;;;;;;14.13;100.00;101040.31;6179931;23;20325;-80
2022/07/07 02:17:32;;;;;;;6.20;4.00;;;;;;;14.15;100.00;101039.38;6205614;23;20043;-83
2022/07/07 02:19:59;;;;;;;3.80;3.33;;;;;;;14.16;100.00;101042.91;6203463;23;20016;-84
2022/07/07 02:22:26;;;;;;;4.32;3.08;;;;;;;14.18;100.00;101033.19;6198965;23;20016;-83
2022/07/07 02:24:53;;;;;;;5.93;4.85;;;;;;;14.22;100.00;101041.03;6179008;23;20025;-82
2022/07/07 02:27:19;;;;;;;6.85;4.20;;;;;;;14.22;100.00;101040.13;6204487;23;20678;-83
2022/07/07 02:29:48;;;;;;;4.38;3.97;;;;;;;14.21;100.00;101038.44;6203729;23;20023;-84
2022/07/07 02:32:18;;;;;;;4.97;4.47;;;;;;;14.22;100.00;101035.75;6201475;23;20024;-83
2022/07/07 02:34:46;;;;;;;6.35;5.68;;;;;;;14.28;100.00;101032.13;6205880;23;20016;-85
2022/07/07 02:37:15;;;;;;;8.23;5.75;;;;;;;14.26;100.00;101030.44;6180468;23;20028;-84
2022/07/07 02:39:46;;;;;;;5.30;4.78;;;;;;;14.26;100.00;101028.66;6180740;23;20442;-84
2022/07/07 02:42:21;;;;;;;7.28;6.07;;;;;;;14.27;100.00;101025.13;6201561;23;20024;-83
2022/07/07 02:44:47;;;;;;;4.78;4.38;;;;;;;14.30;100.00;101019.81;6180672;23;20024;-83
2022/07/07 02:47:19;;;;;;;6.82;5.70;;;;;;;14.35;100.00;101023.25;6205995;23;20554;-84
2022/07/07 02:49:48;;;;;;;8.07;6.07;;;;;;;14.37;100.00;101017.94;6204587;23;20012;-85
2022/07/07 02:52:17;;;;;;;9.63;6.15;;;;;;;14.41;100.00;101010.84;6201411;23;20047;-83
2022/07/07 02:54:44;;;;;;;11.45;7.28;;;;;;;14.38;100.00;101010.00;6204737;23;20031;-83
2022/07/07 02:57:11;;;;;;;8.15;6.30;;;;;;;14.36;100.00;101008.28;6203682;23;20024;-84
2022/07/07 02:59:41;;;;;;;7.07;6.03;;;;;;;14.38;100.00;101003.88;6181450;23;20082;-81
2022/07/07 03:02:10;;;;;;;6.95;6.22;;;;;;;14.38;100.00;101007.38;6176424;23;20035;-82
2022/07/07 03:04:39;;;;;;;8.93;6.80;;;;;;;14.39;100.00;101001.22;6203245;23;20028;-83
2022/07/07 03:07:09;;;;;;;7.57;6.18;;;;;;;14.43;100.00;100993.25;6204561;23;20372;-83
2022/07/07 03:09:35;;;;;;;9.25;6.65;;;;;;;14.49;100.00;100995.75;6178233;23;20070;-83
2022/07/07 03:12:02;;;;;;;8.27;7.35;;;;;;;14.49;100.00;100998.41;6200351;23;20020;-83
2022/07/07 03:14:31;;;;;;;6.97;5.75;;;;;;;14.47;100.00;100985.25;6207308;23;20020;-84
2022/07/07 03:17:00;;;;;;;7.50;6.80;;;;;;;14.48;100.00;100984.34;6206022;23;20103;-85
2022/07/07 03:19:29;;;;;;;6.38;5.45;;;;;;;14.46;100.00;100974.75;6204632;23;20052;-84
2022/07/07 03:21:56;;;;;;;7.43;6.55;;;;;;;14.48;100.00;100976.44;6201601;23;20017;-84
2022/07/07 03:24:23;;;;;;;7.63;6.15;;;;;;;14.50;100.00;100973.78;6205422;23;20024;-84
2022/07/07 03:26:53;;;;;;;8.70;6.72;;;;;;;14.50;100.00;100972.00;6180189;23;20033;-84
2022/07/07 03:29:22;;;;;;;6.80;6.20;;;;;;;14.52;100.00;100969.34;6207071;23;20025;-85
2022/07/07 03:31:51;;;;;;;7.43;6.50;;;;;;;14.56;100.00;100964.00;6205816;23;20035;-84
2022/07/07 03:34:18;;;;;;;6.45;5.80;;;;;;;14.56;100.00;100964.00;6206161;23;20023;-83
2022/07/07 03:36:45;;;;;;;7.03;6.43;;;;;;;14.56;100.00;100956.09;6179442;23;20020;-81
2022/07/07 03:39:14;;;;;;;7.80;5.57;;;;;;;14.58;100.00;100952.56;6204265;23;20024;-85
2022/07/07 03:41:42;;;;;;;8.82;7.05;;;;;;;14.64;100.00;100952.44;6202002;23;20020;-85
2022/07/07 03:44:12;;;;;;;8.18;6.22;;;;;;;14.67;100.00;100950.63;6206780;23;20020;-84
2022/07/07 03:46:48;;;;;;;6.88;6.28;;;;;;;14.70;100.00;100949.69;6208062;23;20099;-84
2022/07/07 03:49:16;;;;;;;6.38;5.78;;;;;;;14.73;100.00;100941.72;6207102;23;20028;-84
2022/07/07 03:51:42;;;;;;;7.82;6.20;;;;;;;14.76;100.00;100946.94;6205305;23;20070;-85
2022/07/07 03:54:10;;;;;;;8.60;6.10;;;;;;;14.78;100.00;100950.38;6208111;23;20059;-81
2022/07/07 03:56:38;;;;;;;6.45;5.85;;;;;;;14.79;100.00;100948.63;6215528;23;20016;-86
2022/07/07 03:59:10;;;;;;;8.20;6.53;;;;;;;14.77;100.00;100959.22;6212308;23;20027;-84
2022/07/07 04:01:44;;;;;;;6.75;6.18;;;;;;;14.77;100.00;100959.22;6209893;23;20857;-86
2022/07/07 04:04:14;;;;;;;8.93;7.20;;;;;;;14.74;100.00;100943.44;6208705;23;20025;-82
2022/07/07 04:06:45;;;;;;;10.02;6.90;;;;;;;14.68;100.00;100943.59;6212120;23;20491;-84
2022/07/07 04:09:12;;;;;;;11.48;6.72;;;;;;;14.57;100.00;100943.78;6186164;23;20024;-84
2022/07/07 04:11:41;;;;;;;11.10;8.18;;;;;;;14.48;100.00;100933.44;6204793;23;20027;-86
2022/07/07 04:14:13;;;;;;;9.32;7.22;;;;;;;14.39;100.00;100930.09;6205634;23;20020;-85
2022/07/07 04:16:39;;;;;;;8.38;7.57;;;;;;;14.29;100.00;100927.66;6206555;23;20024;-83
2022/07/07 04:19:07;;;;;;;9.25;8.30;;;;;;;14.22;100.00;100927.81;6206763;23;20075;-85
2022/07/07 04:21:35;;;;;;;10.75;8.98;;;;;;;14.21;100.00;100926.06;6176189;23;20051;-85
2022/07/07 04:24:04;;;;;;;9.10;8.20;;;;;;;14.21;100.00;100927.84;6205849;23;20071;-83
2022/07/07 04:26:32;;;;;;;9.35;8.40;;;;;;;14.19;100.00;100924.34;6182220;23;20035;-84
2022/07/07 04:28:59;;;;;;;11.15;8.90;;;;;;;14.21;100.00;100925.22;6208743;23;20052;-82
2022/07/07 04:34:16;;;;;;;8.60;7.78;;;;;;;14.20;100.00;100926.94;6182648;23;20020;-84
2022/07/07 04:36:43;;;;;;;10.88;8.25;;;;;;;14.20;100.00;100926.09;6181832;23;20028;-83
2022/07/07 04:39:10;;;;;;;10.60;8.43;;;;;;;14.15;100.00;100923.53;6179907;23;20028;-83
2022/07/07 04:41:38;;;;;;;8.73;7.70;;;;;;;14.15;100.00;100917.41;6204380;23;20028;-82
2022/07/07 04:44:06;;;;;;;10.02;7.70;;;;;;;14.14;100.00;100907.78;6206386;23;20020;-85
2022/07/07 04:46:33;;;;;;;7.97;7.28;;;;;;;14.16;100.00;100906.00;6181705;23;20036;-82
2022/07/07 04:49:00;;;;;;;7.72;6.97;;;;;;;14.19;100.00;100901.50;6181397;23;20021;-83
2022/07/07 04:51:27;;;;;;;8.43;7.63;;;;;;;14.21;100.00;100905.00;6203638;23;20021;-83
2022/07/07 04:53:56;;;;;;;8.55;7.60;;;;;;;14.22;100.00;100904.09;6179000;23;20012;-87
2022/07/07 04:56:23;;;;;;;6.65;6.07;;;;;;;14.25;100.00;100895.28;6207319;23;20017;-85
2022/07/07 04:58:50;;;;;;;6.45;5.95;;;;;;;14.27;100.00;100896.09;6182421;23;20054;-84
2022/07/07 05:01:18;;;;;;;6.57;6.00;;;;;;;14.31;100.00;100894.28;6207511;23;20020;-83
2022/07/07 05:03:44;;;;;;;7.38;6.63;;;;;;;14.35;100.00;100895.94;6201155;23;20013;-84
2022/07/07 05:06:11;;;;;;;6.47;5.93;;;;;;;14.39;100.00;100898.50;6203545;23;20013;-84
2022/07/07 05:08:39;;;;;;;5.22;4.72;;;;;;;14.42;100.00;100891.41;6178495;23;20016;-84
2022/07/07 05:11:09;;;;;;;5.38;4.85;;;;;;;14.47;100.00;100892.19;6178172;23;20024;-86
2022/07/07 05:13:37;;;;;;;4.53;4.22;;;;;;;14.49;100.00;100885.97;6206640;23;20021;-85
2022/07/07 05:16:05;;;;;;;6.88;4.57;;;;;;;14.56;100.00;100884.06;6207016;23;20021;-84
2022/07/07 05:18:33;;;;;;;4.32;3.85;;;;;;;14.61;100.00;100879.56;6181599;23;20032;-85
2022/07/07 05:21:00;;;;;;;3.92;3.72;;;;;;;14.68;100.00;100883.84;6204279;23;20059;-82
2022/07/07 05:23:27;;;;;;;3.63;3.30;;;;;;;14.73;100.00;100878.47;6178625;23;20017;-83
2022/07/07 05:25:54;;;;;;;3.63;3.33;;;;;;;14.75;100.00;100876.66;6181703;23;20036;-85
2022/07/07 05:28:22;;;;;;;3.60;3.30;;;;;;;14.79;100.00;100883.59;6208289;23;20072;-85
2022/07/07 05:30:50;;;;;;;3.40;3.08;;;;;;;14.81;100.00;100883.56;6185432;23;20024;-85
2022/07/07 05:33:17;;;;;;;2.70;2.60;;;;;;;14.85;100.00;100880.84;6211297;23;20052;-84
2022/07/07 05:35:47;;;;;;;2.38;2.28;;;;;;;14.87;100.00;100889.59;6194391;23;20021;-84
2022/07/07 05:38:14;;;;;;;2.50;2.30;;;;;;;14.93;100.00;100879.78;6198649;23;20024;-83
2022/07/07 05:40:41;;;;;;;2.78;2.67;;;;;;;14.94;100.00;100878.88;6201643;23;20025;-84
2022/07/07 05:43:08;;;;;;;4.85;3.05;;;;;;;14.97;100.00;100884.09;6225019;23;20068;-84
2022/07/07 05:45:35;;;;;;;4.47;3.70;;;;;;;14.96;100.00;100877.09;6224985;23;20016;-84
2022/07/07 05:48:02;;;;;;;3.42;3.13;;;;;;;14.95;100.00;100876.19;6224525;23;20040;-83
2022/07/07 05:50:29;;;;;;;2.85;2.65;;;;;;;14.96;100.00;100885.00;6197516;23;20027;-83
2022/07/07 05:52:56;;;;;;;3.95;3.58;;;;;;;14.94;100.00;100879.75;6186641;23;20090;-84
2022/07/07 05:55:23;;;;;;;6.43;3.90;;;;;;;14.91;100.00;100887.72;6210432;23;20009;-82
2022/07/07 05:57:52;;;;;;;4.20;3.90;;;;;;;14.87;100.00;100881.69;6185759;23;20376;-83
2022/07/07 06:00:19;;;;;;;6.93;4.60;;;;;;;14.88;100.00;100882.53;6214157;23;20020;-86
2022/07/07 06:02:46;;;;;;;8.88;5.35;;;;;;;14.89;100.00;100892.19;6163894;23;20031;-83
2022/07/07 06:05:19;;;;;;;8.02;4.40;;;;;;;14.87;100.00;100892.22;6189422;23;20074;-85
2022/07/07 06:07:59;;;;;;;5.05;4.45;;;;;;;14.93;100.00;100895.59;6191529;23;20022;-83
2022/07/07 06:10:32;;;;;;;6.25;4.78;;;;;;;14.97;100.00;100894.63;6187820;23;20020;-84
2022/07/07 06:12:59;;;;;;;8.27;5.45;;;;;;;15.04;100.00;100893.56;6213474;23;20017;-83
2022/07/07 06:15:32;;;;;;;6.80;5.53;;;;;;;15.12;100.00;100902.19;6212581;23;20016;-83
2022/07/07 06:18:02;;;;;;;6.25;5.43;;;;;;;15.24;100.00;100893.13;6213492;23;20028;-83
2022/07/07 06:20:30;;;;;;;5.70;5.20;;;;;;;15.32;100.00;100906.13;6213139;23;20067;-84
2022/07/07 06:22:57;;;;;;;5.35;4.80;;;;;;;15.37;100.00;100909.50;6213036;23;20429;-85
2022/07/07 06:25:26;;;;;;;5.10;4.68;;;;;;;15.39;100.00;100897.13;6164308;23;20260;-83
2022/07/07 06:27:53;;;;;;;4.80;4.40;;;;;;;15.44;100.00;100903.16;6188430;23;20052;-80
2022/07/07 06:30:20;;;;;;;5.78;5.00;;;;;;;15.52;100.00;100903.81;6211253;23;20496;-84
2022/07/07 06:32:48;;;;;;;5.72;4.47;;;;;;;15.70;100.00;100896.34;6211645;23;20063;-84
2022/07/07 06:35:20;;;;;;;4.82;4.30;;;;;;;15.86;100.00;100897.69;6187406;23;20017;-83
2022/07/07 06:37:48;;;;;;;4.30;4.00;;;;;;;16.02;100.00;100900.78;6186543;23;20031;-83
2022/07/07 06:40:15;;;;;;;3.67;3.40;;;;;;;16.14;100.00;100891.66;6187999;23;20021;-83
2022/07/07 06:42:42;;;;;;;5.78;3.80;;;;;;;16.12;100.00;100903.16;6187936;23;20016;-85
2022/07/07 06:45:09;;;;;;;3.60;3.30;;;;;;;16.12;100.00;100892.59;6187728;23;20016;-84
2022/07/07 06:47:36;;;;;;;3.00;2.78;;;;;;;16.17;100.00;100894.19;6212734;23;20123;-82
2022/07/07 06:50:07;;;;;;;3.42;3.17;;;;;;;16.26;100.00;100893.06;6212072;23;20019;-87
2022/07/07 06:52:34;;;;;;;2.75;2.60;;;;;;;16.20;100.00;100890.59;6213120;23;20016;-84
2022/07/07 06:55:06;;;;;;;4.43;3.15;;;;;;;16.21;100.00;100897.63;6190061;23;20040;-83
2022/07/07 06:57:33;;;;;;;5.90;2.70;;;;;;;16.12;100.00;100892.59;6214232;23;20028;-86
2022/07/07 07:00:00;;;;;;;3.28;2.20;;;;;;;16.18;100.00;100890.66;6217080;23;20094;-87
2022/07/07 07:02:27;;;;;;;6.60;3.70;;;;;;;16.26;100.00;100905.44;6215475;23;20024;-82
2022/07/07 07:04:54;;;;;;;2.80;2.60;;;;;;;16.25;100.00;100898.41;6216227;23;20048;-84
2022/07/07 07:07:20;;;;;;;2.63;1.92;;;;;;;16.27;100.00;100899.22;6213599;23;20019;-80
2022/07/07 07:09:53;;;;;;;2.33;1.85;;;;;;;16.26;100.00;100906.28;6189442;23;20013;-83
2022/07/07 07:12:20;;;;;;;5.68;2.47;;;;;;;16.24;100.00;100892.25;6192379;23;20031;-83
2022/07/07 07:14:47;;;;;;;3.22;2.65;;;;;;;16.23;100.00;100892.28;6186976;23;20023;-82
2022/07/07 07:17:15;;;;;;;5.03;2.17;;;;;;;16.16;100.00;100896.88;6186639;23;20031;-83
2022/07/07 07:19:41;;;;;;;2.70;2.35;;;;;;;16.12;100.00;100896.09;6213609;23;20440;-83
2022/07/07 07:22:09;;;;;;;2.30;2.10;;;;;;;16.17;100.00;100902.13;6217428;23;20019;-83
2022/07/07 07:24:36;;;;;;;2.58;2.38;;;;;;;16.19;100.00;100896.78;6216709;23;20013;-85
2022/07/07 07:27:03;;;;;;;2.35;2.25;;;;;;;16.21;100.00;100895.84;6219723;23;20046;-84
2022/07/07 07:29:29;;;;;;;2.75;1.95;;;;;;;16.17;100.00;100899.47;6218338;23;20433;-84
2022/07/07 07:31:57;;;;;;;2.72;2.50;;;;;;;16.08;100.00;100901.53;6192446;23;20087;-84
2022/07/07 07:34:23;;;;;;;2.95;2.10;;;;;;;16.14;100.00;100902.22;6214570;23;20300;-84
2022/07/07 07:36:50;;;;;;;3.25;2.10;;;;;;;16.33;100.00;100901.69;6187528;23;20027;-83
2022/07/07 07:39:17;;;;;;;1.77;1.75;;;;;;;16.51;100.00;100905.56;6213854;23;20031;-84
2022/07/07 07:41:44;;;;;;;2.15;1.98;;;;;;;16.66;100.00;100896.31;6212364;23;20016;-83
2022/07/07 07:44:11;;;;;;;2.30;2.10;;;;;;;16.83;100.00;100901.06;6212239;23;20127;-81
2022/07/07 07:46:38;;;;;;;2.38;2.15;;;;;;;16.91;100.00;100898.22;6211898;23;20023;-85
2022/07/07 07:49:06;;;;;;;3.10;1.98;;;;;;;16.84;100.00;100906.34;6212135;23;20404;-84
2022/07/07 07:51:37;;;;;;;1.83;1.73;;;;;;;16.71;100.00;100907.59;6188216;23;20021;-84
2022/07/07 07:54:06;;;;;;;2.72;1.80;;;;;;;16.67;100.00;100908.63;6211390;23;20024;-84
2022/07/07 07:56:33;;;;;;;5.10;2.65;;;;;;;16.64;100.00;100912.22;6212026;23;20028;-84
2022/07/07 07:59:00;;;;;;;3.58;1.48;;;;;;;16.64;100.00;100914.84;6211073;23;20080;-83
2022/07/07 08:01:26;;;;;;;2.28;1.52;;;;;;;16.66;100.00;100912.16;6211181;23;20075;-84
2022/07/07 08:03:53;;;;;;;3.67;1.45;;;;;;;16.61;100.00;100899.09;6212237;23;20016;-84
2022/07/07 08:06:21;;;;;;;5.55;1.80;;;;;;;16.61;100.00;100912.31;6186503;23;20348;-84
2022/07/07 08:08:48;;;;;;;2.50;2.13;;;;;;;16.53;100.00;100907.25;6212100;23;20391;-84
2022/07/07 08:11:15;;;;;;;1.55;1.45;;;;;;;16.50;100.00;100902.06;6187195;23;20409;-85
2022/07/07 08:13:42;;;;;;;2.22;2.03;;;;;;;16.42;100.00;100904.06;6186983;23;20250;-83
2022/07/07 08:16:08;;;;;;;1.27;1.27;;;;;;;16.37;100.00;100912.13;6186025;23;20016;-82
2022/07/07 08:18:35;;;;;;;2.65;2.03;;;;;;;16.41;100.00;100906.75;6213486;23;20023;-82
2022/07/07 08:21:02;;;;;;;2.53;1.65;;;;;;;16.44;100.00;100912.81;6211998;23;20016;-84
2022/07/07 08:23:32;;;;;;;1.50;1.40;;;;;;;16.52;100.00;100912.59;6212262;23;20012;-83
2022/07/07 08:26:00;;;;;;;1.42;1.10;;;;;;;16.59;100.00;100913.28;6187872;23;20495;-85
2022/07/07 08:28:27;;;;;;;2.03;1.58;;;;;;;16.66;100.00;100912.16;6212268;23;20023;-84
2022/07/07 08:30:54;;;;;;;3.25;1.45;;;;;;;16.85;100.00;100917.75;6163804;23;20099;-83
2022/07/07 08:33:21;;;;;;;1.13;1.02;;;;;;;17.13;100.00;100919.56;6187411;23;20115;-84
2022/07/07 08:35:48;;;;;;;1.30;1.15;;;;;;;17.40;100.00;100925.72;6212709;23;20023;-86
2022/07/07 08:38:16;;;;;;;1.05;0.85;;;;;;;17.76;100.00;100917.47;6213228;23;20043;-82
2022/07/07 08:40:43;;;;;;;1.98;0.40;;;;;;;17.90;99.70;100921.41;6188322;23;20432;-82
2022/07/07 08:43:10;;;;;;;1.95;1.02;;;;;;;17.80;100.00;100926.19;6189382;23;20021;-84
2022/07/07 08:45:40;;;;;;;1.30;0.57;;;;;;;17.66;99.53;100927.53;6213102;23;20722;-84
2022/07/07 08:48:07;;;;;;;2.55;0.57;;;;;;;17.65;100.00;100931.09;6189465;23;20055;-83
2022/07/07 08:50:35;;;;;;;0.20;0.20;;;;;;;17.86;98.60;100933.91;6215216;23;20399;-83
2022/07/07 08:53:04;;;;;;;1.73;0.28;;;;;;;18.19;97.19;100942.47;6213507;23;20033;-83
2022/07/07 08:55:38;;;;;;;0.40;0.20;;;;;;;18.40;94.75;100950.56;6188795;23;20071;-82
2022/07/07 08:58:06;;;;;;;0.63;0.20;;;;;;;18.34;94.76;100954.31;6213890;23;20016;-86
2022/07/07 09:00:33;;;;;;;0.30;0.20;;;;;;;18.08;97.42;100949.94;6212058;23;20012;-82
2022/07/07 09:03:16;;;;;;;0.40;0.30;;;;;;;17.94;98.20;100947.78;6188108;23;20397;-82
2022/07/07 09:05:44;;;;;;;0.52;0.47;;;;;;;18.00;98.69;100952.00;6218352;23;20043;-83
2022/07/07 09:08:23;;;;;;;0.95;0.70;;;;;;;18.09;99.03;100962.25;6201036;23;20755;-84
2022/07/07 09:10:50;;;;;;;2.97;0.55;;;;;;;18.07;99.34;100961.47;6226284;23;20017;-82
2022/07/07 09:13:34;;;;;;;1.52;0.70;;;;;;;17.84;100.00;100959.56;6226378;23;20020;-84
2022/07/07 09:16:35;;;;;;;0.98;0.88;;;;;;;17.50;100.00;100964.22;6223475;23;20047;-83
2022/07/07 09:19:02;;;;;;;1.33;0.75;;;;;;;17.24;100.00;100969.50;6219647;23;20076;-83
2022/07/07 09:21:32;;;;;;;0.50;0.50;;;;;;;17.06;100.00;100973.59;6215832;23;20020;-84
2022/07/07 09:24:07;;;;;;;0.60;0.60;;;;;;;16.91;100.00;100980.19;6193964;23;20413;-84
2022/07/07 09:26:43;;;;;;;1.67;0.65;;;;;;;17.00;100.00;100988.72;6220376;23;20052;-83
2022/07/07 09:29:17;;;;;;;0.95;0.60;;;;;;;17.34;100.00;100990.31;6216186;23;20017;-83
2022/07/07 09:31:53;;;;;;;0.70;0.70;;;;;;;17.80;100.00;100993.22;6219495;23;20075;-83
2022/07/07 09:34:22;;;;;;;3.13;0.60;;;;;;;17.99;99.02;100997.94;6213641;23;20052;-84
2022/07/07 09:39:40;;;;;;;1.75;0.60;;;;;;;17.87;98.06;101007.13;6194427;23;20016;-83
2022/07/07 09:42:30;;;;;;;0.60;0.60;;;;;;;17.98;98.29;101010.31;6215183;23;20021;-85
2022/07/07 09:45:05;;;;;;;2.05;1.20;;;;;;;18.04;96.05;101003.09;6214698;23;20020;-82
2022/07/07 09:47:32;;;;;;;2.72;1.27;;;;;;;17.91;96.20;101011.41;6214324;23;20016;-84
2022/07/07 09:50:10;;;;;;;2.10;1.50;;;;;;;17.78;98.03;101021.56;6214192;23;20048;-84
2022/07/07 09:52:41;;;;;;;1.38;1.38;;;;;;;17.70;99.47;101023.56;6214658;23;20024;-86
2022/07/07 09:55:21;;;;;;;3.05;1.15;;;;;;;17.71;99.06;101029.75;6214427;23;20016;-85
2022/07/07 09:57:48;;;;;;;0.77;0.60;;;;;;;17.90;97.87;101032.66;6190197;23;20052;-84
2022/07/07 10:00:16;;;;;;;0.80;0.47;;;;;;;18.08;95.57;101029.44;6186789;23;20633;-84
2022/07/07 10:02:47;;;;;;;0.85;0.40;;;;;;;18.16;94.60;101037.09;6178252;23;20028;-84
2022/07/07 10:05:17;;;;;;;0.63;0.43;;;;;;;18.15;94.56;101038.03;6187559;23;20026;-85
2022/07/07 10:07:49;;;;;;;0.25;0.25;;;;;;;17.93;96.31;101046.69;6211068;23;20092;-83
2022/07/07 10:10:21;;;;;;;0.60;0.60;;;;;;;17.69;100.00;101043.91;6184969;23;20091;-83
2022/07/07 10:12:52;;;;;;;1.00;0.52;;;;;;;17.50;100.00;101056.00;6212406;23;20024;-86
2022/07/07 10:15:20;;;;;;;0.75;0.45;;;;;;;17.31;100.00;101056.56;6212186;23;20021;-83
2022/07/07 10:17:49;;;;;;;2.08;1.10;;;;;;;17.28;100.00;101064.59;6211959;23;20025;-84
2022/07/07 10:20:20;;;;;;;1.13;0.60;;;;;;;17.35;100.00;101058.22;6187428;23;20389;-85
2022/07/07 10:22:47;;;;;;;1.58;0.85;;;;;;;17.41;100.00;101069.53;6211705;23;20459;-84
2022/07/07 10:25:15;;;;;;;0.82;0.40;;;;;;;17.38;100.00;101069.59;6164056;23;20080;-82
2022/07/07 10:27:43;;;;;;;0.80;0.40;;;;;;;17.22;100.00;101074.50;6188447;23;20024;-83
2022/07/07 10:30:13;;;;;;;0.55;0.30;;;;;;;17.06;100.00;101076.75;6211325;23;20016;-86
2022/07/07 10:32:52;;;;;;;0.35;0.22;;;;;;;16.89;100.00;101082.47;6197899;23;20016;-83
2022/07/07 10:35:23;;;;;;;0.63;0.22;;;;;;;16.67;100.00;101094.53;6212227;23;20063;-83
2022/07/07 10:38:04;;;;;;;0.50;0.50;;;;;;;16.55;100.00;101089.56;6212190;23;20027;-84
2022/07/07 10:40:32;;;;;;;1.63;0.30;;;;;;;16.48;100.00;101093.28;6188794;23;20016;-84
2022/07/07 10:43:24;;;;;;;0.93;0.52;;;;;;;16.52;100.00;101090.50;6213557;23;20028;-86
2022/07/07 10:45:55;;;;;;;3.00;0.82;;;;;;;16.59;100.00;101103.56;6216381;23;20027;-83
2022/07/07 10:48:54;;;;;;;1.42;0.77;;;;;;;16.59;100.00;101104.41;6216112;23;20037;-83
2022/07/07 10:51:27;;;;;;;1.77;0.52;;;;;;;16.56;100.00;101104.50;6224935;23;20016;-83
2022/07/07 10:54:03;;;;;;;2.42;1.23;;;;;;;16.65;100.00;101108.69;6228824;23;20095;-82
2022/07/07 10:56:53;;;;;;;1.42;1.20;;;;;;;16.66;100.00;101106.00;6207597;23;20047;-87
2022/07/07 10:59:25;;;;;;;1.67;1.17;;;;;;;16.80;100.00;101102.97;6232455;23;20043;-83
2022/07/07 11:02:01;;;;;;;1.53;0.80;;;;;;;17.13;100.00;101108.25;6202428;23;20032;-83
2022/07/07 11:04:44;;;;;;;1.42;1.02;;;;;;;17.55;100.00;101114.97;6226573;23;20012;-82
2022/07/07 11:07:19;;;;;;;1.70;0.80;;;;;;;17.58;100.00;101108.69;6223023;23;20040;-85
2022/07/07 11:10:14;;;;;;;1.75;0.77;;;;;;;17.59;100.00;101105.16;6194071;23;20017;-84
2022/07/07 11:12:53;;;;;;;3.03;1.08;;;;;;;17.57;100.00;101117.56;6189111;23;20514;-84
2022/07/07 11:15:20;;;;;;;4.20;1.35;;;;;;;17.56;100.00;101118.47;6212943;23;20016;-84
2022/07/07 11:17:55;;;;;;;3.33;1.20;;;;;;;17.67;100.00;101122.50;6214055;23;20024;-83
2022/07/07 11:20:30;;;;;;;3.53;1.70;;;;;;;18.11;100.00;101116.75;6216689;23;20020;-82
2022/07/07 11:23:10;;;;;;;2.95;1.70;;;;;;;19.14;95.13;101120.25;6214950;23;20028;-83
2022/07/07 11:25:39;;;;;;;3.90;1.90;;;;;;;19.84;89.43;101128.19;6189208;23;20024;-83
2022/07/07 11:28:10;;;;;;;4.05;1.52;;;;;;;20.42;83.96;101126.75;6213581;23;20016;-81
2022/07/07 11:30:39;;;;;;;4.63;1.70;;;;;;;20.52;83.24;101127.19;6213615;23;20016;-84
2022/07/07 11:33:06;;;;;;;1.70;1.45;;;;;;;20.27;84.60;101134.44;6214345;23;20047;-84
2022/07/07 11:35:40;;;;;;;4.53;1.80;;;;;;;20.02;85.29;101133.72;6189212;23;20044;-84